Hovedside
METAR-TAF:

METAR-TAF

Lufthavner :

Utti, Finland

Utti lufthavn

breddegrad: 60-54N, lengdegrad: 026-56E, høyde over havet: 100 m

Gjeldene værobservasjon

Denne rapporten ble laget for 19 minutter siden, klokken 07:20 UTC
Vind 12 kt fra Nordvest, skiftende mellom Vest-nordvest og Nord
Temperatur 5°C
Luftfuktighet 93%
Trykk 994 hPa
Sikt 10 km eller mer
Få skyer i en høyde av 800 ft
Overskyet i en høyde av 5500 ft
lette regnbyger

METAR: EFUT 210720Z AUTO 32012KT 300V360 9999 -SHRA FEW008 OVC055 05/04 Q0994

Tid: 10:39 (07:39 UTC)

Varsel

Denne rapporten ble laget for 23 timer og 4 minutter siden, klokken 08:35 UTC
Varsel gyldig fra 20. klokken 09 UTC til 20. klokken 12 UTC
Vind 6 kt fra Sør
Sikt 10 km eller mer
ingen skyer under 1500 m og ingen bygeskyer

TAF: EFUT 200835Z 2009/2012 19006KT CAVOK

Værobservasjoner og værvarsel for over 4000 flyplasser (METAR- og TAF-rapporter).

Tilgjengelige stasjoner er representert av de røde og gule prikkene på kartet.

Hold musepekeren over prikken for å se navnet på stasjonen.

Klikk så for å se værobservasjoner og -varsler.

For å forandre kartet kan du klikke på den grønne knappen med svart kryss for å zoome inn, på den grønne knappen med strek for å zoome ut, eller på de grønne pilene for å se tilstøtende kart.


METAR-TAF: